Time;durP1;ratioP1;P1;durP2;ratioP2;P2;SDS_P1;SDS_P2;PMS_P1;PMS_P2;Temp;Humidity;BMP_temperature;BMP_pressure;BME280_temperature;BME280_humidity;BME280_pressure;Samples;Min_cycle;Max_cycle;Signal;HPM_P1;HPM_P2
2023/06/03 00:02:02;;;;;;;5.93;2.58;;;;;;;18.99;43.61;99994.91;4959631;28;20046;-88
2023/06/03 00:04:29;;;;;;;7.20;2.63;;;;;;;18.93;43.84;99984.91;4984188;28;20528;-87
2023/06/03 00:06:58;;;;;;;8.43;2.67;;;;;;;18.99;43.83;99986.84;4961884;28;20050;-88
2023/06/03 00:09:25;;;;;;;11.18;3.15;;;;;;;18.90;44.13;99987.13;4937644;28;20319;-87
2023/06/03 00:11:52;;;;;;;6.15;2.88;;;;;;;18.86;44.13;99986.66;4974829;28;20042;-86
2023/06/03 00:14:19;;;;;;;5.22;2.70;;;;;;;18.80;43.90;99988.25;4989901;28;21183;-88
2023/06/03 00:16:46;;;;;;;7.25;2.50;;;;;;;18.85;43.95;99987.66;4952021;28;20045;-87
2023/06/03 00:19:14;;;;;;;8.88;2.70;;;;;;;18.87;44.10;99982.94;4940156;28;20062;-87
2023/06/03 00:21:49;;;;;;;11.98;2.63;;;;;;;18.83;44.50;99997.81;4916416;28;20042;-88
2023/06/03 00:24:22;;;;;;;8.13;2.65;;;;;;;18.75;44.58;99985.28;4934981;28;20629;-87
2023/06/03 00:26:50;;;;;;;3.97;2.55;;;;;;;18.66;44.71;99989.88;4944708;28;20069;-89
2023/06/03 00:29:17;;;;;;;12.15;2.80;;;;;;;18.73;44.61;99992.66;4947265;28;20062;-86
2023/06/03 00:31:44;;;;;;;7.75;2.63;;;;;;;18.76;44.23;99997.69;4965535;28;20564;-87
2023/06/03 00:34:13;;;;;;;6.82;2.80;;;;;;;18.74;44.67;99993.50;4955495;28;20134;-87
2023/06/03 00:36:40;;;;;;;10.20;2.90;;;;;;;18.69;44.73;99987.84;4965434;28;20692;-88
2023/06/03 00:39:08;;;;;;;9.80;3.22;;;;;;;18.62;45.08;99985.03;4946221;28;20565;-87
2023/06/03 00:41:35;;;;;;;6.28;2.60;;;;;;;18.65;44.77;99984.69;4954532;28;20082;-88
2023/06/03 00:44:02;;;;;;;7.65;2.42;;;;;;;18.70;44.95;99984.97;4957189;28;20073;-87
2023/06/03 00:46:30;;;;;;;6.95;2.75;;;;;;;18.64;45.07;99985.69;4958579;28;20454;-86
2023/06/03 00:48:58;;;;;;;6.50;2.30;;;;;;;18.66;44.90;99995.25;4961829;28;20287;-87
2023/06/03 00:51:25;;;;;;;6.30;2.35;;;;;;;18.58;45.07;99997.19;4969336;28;20059;-88
2023/06/03 00:53:51;;;;;;;10.35;2.70;;;;;;;18.54;45.37;99991.34;4944013;28;20133;-86
2023/06/03 00:56:19;;;;;;;8.35;3.35;;;;;;;18.42;45.49;99988.28;4945949;28;20046;-88
2023/06/03 00:58:46;;;;;;;7.75;3.30;;;;;;;18.45;45.41;99995.13;4933414;28;20054;-87
2023/06/03 01:01:13;;;;;;;8.10;2.80;;;;;;;18.38;45.92;99995.03;4933022;28;20069;-85
2023/06/03 01:03:42;;;;;;;6.15;3.10;;;;;;;18.41;45.72;99993.81;4940838;28;20529;-88
2023/06/03 01:06:32;;;;;;;7.97;3.03;;;;;;;18.26;46.06;99993.78;4952812;28;20069;-86
2023/06/03 01:09:10;;;;;;;9.27;2.88;;;;;;;18.23;46.42;99994.16;4956367;28;20046;-87
2023/06/03 01:11:51;;;;;;;8.93;2.78;;;;;;;18.20;46.36;99989.16;4949150;28;20049;-87
2023/06/03 01:14:24;;;;;;;9.57;2.67;;;;;;;18.15;46.46;99992.38;4941256;28;20370;-86
2023/06/03 01:16:52;;;;;;;8.50;2.65;;;;;;;18.18;46.17;99992.00;4973503;28;20092;-86
2023/06/03 01:19:48;;;;;;;7.10;2.55;;;;;;;18.14;46.97;99988.03;4970807;28;20417;-87
2023/06/03 01:22:16;;;;;;;9.00;3.28;;;;;;;18.35;46.01;99983.81;4924127;28;20057;-87
2023/06/03 01:24:44;;;;;;;7.60;2.85;;;;;;;18.33;46.11;99975.09;4926287;28;20066;-87
2023/06/03 01:27:12;;;;;;;6.15;2.63;;;;;;;18.21;46.43;99963.94;4933906;28;20503;-87
2023/06/03 01:29:41;;;;;;;6.85;2.70;;;;;;;18.28;46.12;99977.50;4956746;28;20042;-87
2023/06/03 01:32:14;;;;;;;7.00;2.42;;;;;;;18.27;46.80;99979.34;4958519;28;20054;-87
2023/06/03 01:34:42;;;;;;;9.38;3.15;;;;;;;18.18;46.47;99969.69;4952105;28;20055;-87
2023/06/03 01:37:09;;;;;;;9.40;3.10;;;;;;;18.18;46.59;99972.38;4928032;28;20110;-87
2023/06/03 01:39:40;;;;;;;6.88;2.85;;;;;;;18.18;46.95;99970.50;4917821;28;20569;-88
2023/06/03 01:42:08;;;;;;;10.25;2.72;;;;;;;18.27;46.28;99973.13;4925326;28;20106;-87
2023/06/03 01:44:37;;;;;;;7.93;3.10;;;;;;;18.22;46.73;99974.50;4939606;28;20047;-86
2023/06/03 01:47:04;;;;;;;7.25;2.45;;;;;;;18.21;46.73;99980.88;4952877;28;20050;-88
2023/06/03 01:49:31;;;;;;;7.32;2.72;;;;;;;18.23;46.80;99978.84;4923762;28;20058;-87
2023/06/03 01:51:59;;;;;;;9.52;2.80;;;;;;;18.18;46.74;99970.50;4913316;28;20075;-89
2023/06/03 01:54:28;;;;;;;11.48;3.17;;;;;;;18.22;46.73;99962.94;4920048;28;20054;-88
2023/06/03 01:56:56;;;;;;;8.20;2.53;;;;;;;18.17;46.79;99973.41;4952956;28;20070;-87
2023/06/03 01:59:24;;;;;;;5.68;2.53;;;;;;;18.20;46.89;99979.22;4939978;28;20051;-88
2023/06/03 02:01:52;;;;;;;6.63;2.83;;;;;;;18.22;47.01;99971.81;4919494;28;20097;-88
2023/06/03 02:04:21;;;;;;;8.52;2.40;;;;;;;18.19;46.96;99968.66;4927762;28;20134;-89
2023/06/03 02:06:55;;;;;;;6.45;2.65;;;;;;;18.01;47.45;99974.34;4915643;28;20058;-87
2023/06/03 02:09:27;;;;;;;13.25;2.80;;;;;;;18.09;46.80;99974.31;4939978;28;20106;-89
2023/06/03 02:11:54;;;;;;;8.88;2.75;;;;;;;18.08;46.96;99969.09;4953841;28;20058;-88
2023/06/03 02:14:22;;;;;;;7.43;2.80;;;;;;;18.02;47.11;99977.88;4954679;28;20046;-89
2023/06/03 02:16:49;;;;;;;9.60;3.25;;;;;;;18.02;47.17;99981.41;4949772;28;20346;-88
2023/06/03 02:19:20;;;;;;;9.85;3.53;;;;;;;17.98;47.55;99980.09;4915970;28;20059;-89
2023/06/03 02:21:47;;;;;;;6.18;2.53;;;;;;;18.05;47.54;99972.16;4930859;28;20050;-88
2023/06/03 02:24:16;;;;;;;8.90;2.90;;;;;;;18.06;47.32;99981.88;4946567;28;20073;-88
2023/06/03 02:26:52;;;;;;;6.25;3.05;;;;;;;18.06;47.56;99973.81;4944324;28;20536;-90
2023/06/03 02:29:27;;;;;;;7.45;3.15;;;;;;;18.00;47.83;99978.88;4942881;28;20055;-88
2023/06/03 02:31:56;;;;;;;8.57;2.90;;;;;;;18.07;47.41;99975.50;4948188;28;20327;-89
2023/06/03 02:34:23;;;;;;;9.93;3.35;;;;;;;18.06;47.37;99968.44;4931054;28;20070;-89
2023/06/03 02:36:50;;;;;;;9.60;2.60;;;;;;;18.04;47.49;99967.78;4930094;28;20544;-89
2023/06/03 02:39:18;;;;;;;7.18;3.10;;;;;;;17.97;47.73;99981.13;4931668;28;20429;-88
2023/06/03 02:41:46;;;;;;;8.05;2.65;;;;;;;18.03;47.54;99968.81;4924741;28;20235;-88
2023/06/03 02:44:15;;;;;;;6.45;2.90;;;;;;;17.99;47.75;99977.22;4946546;28;20129;-88
2023/06/03 02:46:43;;;;;;;10.63;3.30;;;;;;;18.00;47.79;99973.50;4924715;28;20461;-89
2023/06/03 02:49:11;;;;;;;10.80;3.08;;;;;;;18.00;47.84;99978.88;4953658;28;20046;-86
2023/06/03 02:51:40;;;;;;;7.22;2.83;;;;;;;17.95;47.84;99977.75;4947406;28;20078;-87
2023/06/03 02:54:07;;;;;;;10.60;3.72;;;;;;;17.92;47.75;99986.19;4917911;28;20051;-88
2023/06/03 02:56:34;;;;;;;4.88;3.10;;;;;;;17.94;47.95;99987.69;4916200;28;20055;-87
2023/06/03 02:59:01;;;;;;;6.60;2.92;;;;;;;17.90;48.01;99988.22;4958293;28;20053;-87
2023/06/03 03:01:28;;;;;;;6.13;3.03;;;;;;;17.83;48.08;99992.63;4932936;28;20529;-89
2023/06/03 03:03:55;;;;;;;9.40;2.95;;;;;;;17.87;48.00;100000.16;4942873;28;20457;-88
2023/06/03 03:06:24;;;;;;;8.55;3.30;;;;;;;17.78;48.42;99995.81;4956258;28;20109;-86
2023/06/03 03:08:52;;;;;;;11.05;3.03;;;;;;;17.76;48.08;99998.69;4962263;28;20042;-86
2023/06/03 03:11:27;;;;;;;6.20;3.35;;;;;;;17.73;48.21;99996.38;4968152;28;20132;-87
2023/06/03 03:13:55;;;;;;;6.47;3.20;;;;;;;17.71;48.40;100003.75;4951204;28;20061;-88
2023/06/03 03:16:24;;;;;;;6.25;3.08;;;;;;;17.72;48.35;99997.38;4920185;28;20106;-87
2023/06/03 03:18:51;;;;;;;7.72;3.60;;;;;;;17.57;48.75;99999.16;4956625;28;20440;-87
2023/06/03 03:21:19;;;;;;;5.47;2.92;;;;;;;17.46;48.95;99997.69;4931020;28;20043;-87
2023/06/03 03:23:46;;;;;;;8.70;3.58;;;;;;;17.56;48.57;99998.31;4955305;28;20601;-88
2023/06/03 03:26:15;;;;;;;7.10;3.20;;;;;;;17.58;48.60;100001.66;4950567;28;20509;-86
2023/06/03 03:28:44;;;;;;;5.35;3.42;;;;;;;17.58;48.63;99998.97;4962986;28;20050;-88
2023/06/03 03:31:14;;;;;;;5.47;3.10;;;;;;;17.64;48.52;100005.47;4947717;28;20057;-87
2023/06/03 03:33:41;;;;;;;8.05;3.03;;;;;;;17.63;48.77;100003.81;4965728;28;20046;-87
2023/06/03 03:36:28;;;;;;;5.85;3.33;;;;;;;17.46;48.97;100004.94;4962214;28;20046;-87
2023/06/03 03:39:06;;;;;;;5.70;2.78;;;;;;;17.44;49.16;100002.41;4953005;28;20051;-87
2023/06/03 03:41:42;;;;;;;12.57;3.03;;;;;;;17.45;48.92;100005.91;4924250;28;20051;-86
2023/06/03 03:44:11;;;;;;;7.07;3.17;;;;;;;17.41;49.06;100016.19;4956633;28;20514;-86
2023/06/03 03:46:52;;;;;;;10.38;3.53;;;;;;;17.40;49.68;100009.13;4913655;28;20050;-87
2023/06/03 03:49:31;;;;;;;6.55;2.90;;;;;;;17.42;49.35;100008.97;4945073;28;20059;-87
2023/06/03 03:52:04;;;;;;;4.80;2.70;;;;;;;17.55;49.32;100010.06;4950092;28;20146;-87
2023/06/03 03:54:35;;;;;;;9.17;3.40;;;;;;;17.66;49.23;100019.56;4944816;28;20100;-86
2023/06/03 03:57:09;;;;;;;8.27;3.13;;;;;;;17.56;49.12;100021.66;4936441;28;20046;-88
2023/06/03 03:59:36;;;;;;;;;;;;;;;17.31;49.88;100011.03;4925833;28;20434;-88
2023/06/03 04:02:02;;;;;;;6.43;3.10;;;;;;;17.60;48.97;100014.06;4942834;28;19926;-87
2023/06/03 04:04:38;;;;;;;6.57;2.92;;;;;;;17.49;49.10;100018.00;4930852;28;20388;-88
2023/06/03 04:07:07;;;;;;;7.80;3.42;;;;;;;17.68;48.59;100017.56;4943651;28;20051;-87
2023/06/03 04:09:36;;;;;;;6.80;3.15;;;;;;;18.05;48.17;100012.47;4951018;28;20510;-87
2023/06/03 04:12:06;;;;;;;8.73;3.45;;;;;;;18.15;47.70;100013.88;4924612;28;20051;-88
2023/06/03 04:14:45;;;;;;;7.13;3.22;;;;;;;18.13;47.92;100015.06;4939863;28;20435;-88
2023/06/03 04:17:19;;;;;;;5.20;3.17;;;;;;;18.16;47.81;100006.66;4935955;28;20437;-88
2023/06/03 04:19:47;;;;;;;5.53;3.23;;;;;;;18.37;47.45;100020.25;4955288;28;20099;-87
2023/06/03 04:22:23;;;;;;;8.63;3.88;;;;;;;18.31;47.55;100020.13;4945796;28;21054;-87
2023/06/03 04:24:57;;;;;;;9.93;3.45;;;;;;;18.16;47.72;100025.44;4959884;28;20074;-88
2023/06/03 04:27:50;;;;;;;6.93;3.35;;;;;;;18.35;48.08;100030.34;4962109;28;20053;-87
2023/06/03 04:30:21;;;;;;;7.75;3.30;;;;;;;18.42;47.61;100025.09;4900358;28;20533;-87
2023/06/03 04:32:49;;;;;;;7.25;3.10;;;;;;;18.54;47.51;100020.09;4926064;28;20049;-87
2023/06/03 04:35:18;;;;;;;7.25;3.65;;;;;;;18.59;47.19;100021.19;4926534;28;20058;-87
2023/06/03 04:37:45;;;;;;;7.70;3.50;;;;;;;18.58;47.19;100021.41;4933514;28;20054;-87
2023/06/03 04:40:16;;;;;;;6.80;3.65;;;;;;;18.60;47.46;100027.44;4925798;28;20277;-87
2023/06/03 04:42:46;;;;;;;8.05;3.33;;;;;;;18.60;47.01;100014.81;4935287;28;20054;-87
2023/06/03 04:45:14;;;;;;;5.80;2.95;;;;;;;18.50;47.29;100029.56;4908739;28;20051;-87
2023/06/03 04:47:42;;;;;;;6.45;3.08;;;;;;;18.51;47.46;100028.53;4935300;28;20057;-86
2023/06/03 04:50:10;;;;;;;8.02;3.13;;;;;;;18.46;47.69;100023.69;4921978;28;20046;-89
2023/06/03 04:52:38;;;;;;;9.98;3.75;;;;;;;18.50;47.82;100026.88;4954473;28;20045;-86
2023/06/03 04:55:08;;;;;;;9.00;3.63;;;;;;;18.48;47.69;100023.50;4921442;28;20121;-87
2023/06/03 04:57:37;;;;;;;10.10;3.65;;;;;;;18.37;47.70;100014.03;4919506;28;20070;-88
2023/06/03 05:00:06;;;;;;;5.88;3.15;;;;;;;18.33;47.41;100024.31;4950467;28;20123;-87
2023/06/03 05:02:34;;;;;;;6.35;2.97;;;;;;;18.25;47.75;100026.25;4962321;28;20047;-87
2023/06/03 05:05:03;;;;;;;7.00;3.30;;;;;;;18.20;48.28;100022.22;4951954;28;20394;-88
2023/06/03 05:07:31;;;;;;;8.93;3.70;;;;;;;18.04;48.22;100025.06;4928555;28;20055;-87
2023/06/03 05:09:59;;;;;;;7.78;3.80;;;;;;;18.01;48.35;100022.72;4971007;28;20054;-86
2023/06/03 05:12:28;;;;;;;6.90;3.13;;;;;;;17.96;48.53;100023.28;4965967;28;20104;-88
2023/06/03 05:14:55;;;;;;;5.70;3.00;;;;;;;18.07;48.34;100021.19;4968036;28;20098;-87
2023/06/03 05:17:21;;;;;;;7.22;3.28;;;;;;;18.07;48.14;100016.63;4944228;28;20042;-86
2023/06/03 05:19:48;;;;;;;6.00;3.33;;;;;;;18.05;48.33;100024.03;4962176;28;20117;-87
2023/06/03 05:22:16;;;;;;;6.53;3.90;;;;;;;18.10;48.86;100021.66;4937138;28;20317;-87
2023/06/03 05:24:43;;;;;;;10.40;3.78;;;;;;;18.12;48.65;100026.84;4942408;28;20227;-87
2023/06/03 05:27:10;;;;;;;10.27;3.55;;;;;;;18.11;48.57;100017.09;4941791;28;20058;-87
2023/06/03 05:29:37;;;;;;;6.53;3.20;;;;;;;18.13;48.67;100021.28;4956413;28;20464;-87
2023/06/03 05:32:04;;;;;;;5.90;3.45;;;;;;;18.11;48.52;100030.53;4943560;28;20051;-86
2023/06/03 05:34:31;;;;;;;8.65;3.60;;;;;;;18.13;48.45;100015.06;4958580;28;20042;-87
2023/06/03 05:36:59;;;;;;;8.55;3.75;;;;;;;18.21;48.71;100021.19;4941982;28;20059;-88
2023/06/03 05:39:27;;;;;;;11.25;4.18;;;;;;;18.15;48.87;100023.78;4954002;28;20457;-87
2023/06/03 05:41:54;;;;;;;8.30;3.78;;;;;;;18.20;48.75;100032.97;4922212;28;20062;-87
2023/06/03 05:44:23;;;;;;;5.10;3.53;;;;;;;18.18;48.81;100026.13;4909899;28;20047;-87
2023/06/03 05:46:50;;;;;;;5.25;2.75;;;;;;;18.21;48.83;100023.06;4944127;28;20101;-87
2023/06/03 05:49:17;;;;;;;9.20;3.78;;;;;;;18.12;49.19;100024.16;4926987;28;20582;-87
2023/06/03 05:51:44;;;;;;;6.18;3.83;;;;;;;18.21;49.10;100028.44;4929459;28;20070;-87
2023/06/03 05:54:12;;;;;;;7.30;3.65;;;;;;;18.25;48.86;100028.94;4938211;28;20069;-87
2023/06/03 05:56:38;;;;;;;7.05;3.70;;;;;;;18.29;48.53;100020.28;4910775;28;20047;-87
2023/06/03 05:59:06;;;;;;;6.38;3.40;;;;;;;18.30;48.87;100021.16;4941979;28;20546;-87
2023/06/03 06:01:37;;;;;;;6.88;3.40;;;;;;;18.26;49.07;100022.53;4928554;28;20429;-87
2023/06/03 06:04:05;;;;;;;7.85;3.55;;;;;;;18.27;49.27;100025.03;4955314;28;20050;-87
2023/06/03 06:06:32;;;;;;;13.38;3.47;;;;;;;18.32;48.80;100021.78;4948556;28;20067;-87
2023/06/03 06:08:59;;;;;;;6.72;3.42;;;;;;;18.34;48.77;100006.31;4955217;28;20049;-89
2023/06/03 06:11:26;;;;;;;6.93;3.15;;;;;;;18.38;48.97;100021.91;4941701;28;20489;-88
2023/06/03 06:13:54;;;;;;;7.13;3.78;;;;;;;18.42;48.57;100019.72;4944299;28;20042;-88
2023/06/03 06:16:21;;;;;;;7.97;3.15;;;;;;;18.40;48.66;100013.69;4952728;28;20047;-88
2023/06/03 06:18:48;;;;;;;5.88;3.10;;;;;;;18.30;48.80;100019.28;4947492;28;20137;-88
2023/06/03 06:21:16;;;;;;;6.05;3.30;;;;;;;18.33;48.72;100018.09;4945143;28;20053;-88
2023/06/03 06:23:44;;;;;;;5.95;3.47;;;;;;;18.21;49.19;100010.44;4967336;28;20050;-87
2023/06/03 06:26:16;;;;;;;8.65;3.47;;;;;;;18.28;50.00;100020.50;4960460;28;20042;-87
2023/06/03 06:28:45;;;;;;;8.80;3.40;;;;;;;18.35;49.42;100016.91;4938266;28;20047;-88
2023/06/03 06:31:13;;;;;;;7.82;3.80;;;;;;;18.37;49.34;100019.41;4948027;28;20069;-88
2023/06/03 06:33:47;;;;;;;7.47;3.60;;;;;;;18.37;49.29;100014.03;4940937;28;22702;-86
2023/06/03 06:36:30;;;;;;;5.43;3.22;;;;;;;18.31;49.79;100029.03;4960638;28;20466;-87
2023/06/03 06:38:59;;;;;;;7.30;3.60;;;;;;;18.38;49.12;100016.53;4931555;28;20525;-88
2023/06/03 06:41:29;;;;;;;5.38;3.20;;;;;;;18.37;48.77;100016.72;4921676;28;20043;-87
2023/06/03 06:43:58;;;;;;;6.70;3.67;;;;;;;18.40;48.92;100024.44;4915128;28;20129;-89
2023/06/03 06:46:25;;;;;;;5.85;3.75;;;;;;;18.32;49.15;100028.03;4911720;28;20071;-88
2023/06/03 06:48:52;;;;;;;7.07;3.58;;;;;;;18.31;49.08;100020.13;4915200;28;20102;-87
2023/06/03 06:51:21;;;;;;;5.45;3.42;;;;;;;18.25;49.62;100021.69;4927732;28;20425;-88
2023/06/03 06:53:48;;;;;;;6.72;3.45;;;;;;;18.35;49.13;100016.91;4913455;28;20057;-86
2023/06/03 06:56:17;;;;;;;7.53;3.40;;;;;;;18.45;49.10;100022.03;4945146;28;20076;-87
2023/06/03 06:58:49;;;;;;;4.63;3.53;;;;;;;18.45;49.19;100019.34;4955022;28;20087;-87
2023/06/03 07:01:16;;;;;;;6.60;3.33;;;;;;;18.36;48.85;100020.41;4935577;28;20051;-87
2023/06/03 07:03:47;;;;;;;4.90;3.20;;;;;;;18.44;49.07;100012.28;4958830;28;20130;-88
2023/06/03 07:06:15;;;;;;;7.65;3.83;;;;;;;18.38;49.05;100024.59;4946086;28;20046;-88
2023/06/03 07:08:42;;;;;;;6.05;3.63;;;;;;;18.38;48.93;100015.69;4961189;28;20046;-87
2023/06/03 07:11:11;;;;;;;7.95;3.47;;;;;;;18.30;49.00;100046.19;4978279;28;20126;-87
2023/06/03 07:13:52;;;;;;;6.35;3.78;;;;;;;18.31;49.11;100030.88;4936770;28;20504;-87
2023/06/03 07:16:21;;;;;;;8.27;3.47;;;;;;;18.38;49.24;100021.91;4947351;28;20367;-88
2023/06/03 07:18:50;;;;;;;7.50;4.00;;;;;;;18.34;49.18;100017.06;4949854;28;20051;-88
2023/06/03 07:21:18;;;;;;;4.55;3.38;;;;;;;18.40;49.04;100025.25;4938329;28;20632;-88
2023/06/03 07:23:45;;;;;;;10.13;3.47;;;;;;;18.48;48.92;100027.03;4928571;28;20090;-87
2023/06/03 07:26:13;;;;;;;3.95;3.55;;;;;;;18.48;49.54;100013.59;4943039;28;20050;-87
2023/06/03 07:28:40;;;;;;;6.20;3.60;;;;;;;18.47;48.93;100019.13;4963625;28;20050;-87
2023/06/03 07:31:13;;;;;;;7.35;3.63;;;;;;;18.48;49.12;100026.22;4951322;28;20069;-88
2023/06/03 07:33:55;;;;;;;9.30;3.95;;;;;;;18.49;49.40;100023.31;4938049;28;20042;-88
2023/06/03 07:36:43;;;;;;;5.38;3.30;;;;;;;18.48;49.06;100013.59;4944072;28;20134;-88
2023/06/03 07:39:15;;;;;;;7.95;4.00;;;;;;;18.46;49.94;100017.47;4955794;28;20038;-89
2023/06/03 07:41:51;;;;;;;5.78;3.78;;;;;;;18.46;49.17;100015.63;4957659;28;20125;-87
2023/06/03 07:44:45;;;;;;;5.63;3.80;;;;;;;18.41;49.77;100024.22;4935718;28;20058;-87
2023/06/03 07:47:13;;;;;;;5.10;3.33;;;;;;;18.49;49.71;100023.31;4951350;28;20081;-88
2023/06/03 07:49:44;;;;;;;6.95;3.72;;;;;;;18.49;49.55;100028.69;4941082;28;20047;-87
2023/06/03 07:52:19;;;;;;;7.03;3.75;;;;;;;18.65;49.13;100014.28;4925989;28;20471;-87
2023/06/03 07:54:46;;;;;;;8.10;3.42;;;;;;;18.59;49.82;100040.03;4944660;28;20047;-87
2023/06/03 07:57:13;;;;;;;6.97;3.45;;;;;;;18.63;49.45;100021.69;4937924;28;20062;-88
2023/06/03 07:59:54;;;;;;;7.53;3.50;;;;;;;18.64;50.05;100026.88;4925846;28;20055;-88
2023/06/03 08:02:21;;;;;;;7.40;3.67;;;;;;;18.78;49.57;100021.75;4943399;28;20053;-89
2023/06/03 08:04:52;;;;;;;6.30;3.75;;;;;;;18.63;49.67;100021.69;4954966;28;20047;-88
2023/06/03 08:07:19;;;;;;;9.63;3.50;;;;;;;18.57;49.77;100028.63;4938521;28;20079;-89
2023/06/03 08:09:47;;;;;;;6.97;4.20;;;;;;;18.65;49.23;100027.72;4908052;28;20058;-87
2023/06/03 08:12:17;;;;;;;6.40;3.72;;;;;;;18.72;49.24;100034.00;4911415;28;20500;-88
2023/06/03 08:14:44;;;;;;;7.00;3.95;;;;;;;18.72;49.30;100025.13;4918213;28;20124;-89
2023/06/03 08:17:13;;;;;;;4.45;3.28;;;;;;;18.78;49.44;100021.75;4927149;28;20731;-88
2023/06/03 08:19:44;;;;;;;5.50;3.58;;;;;;;18.85;49.50;100022.66;4969973;28;20142;-88
2023/06/03 08:22:39;;;;;;;6.28;3.53;;;;;;;18.80;50.65;100033.13;4947392;28;20069;-89
2023/06/03 08:25:06;;;;;;;6.95;3.70;;;;;;;18.94;49.88;100029.63;4962780;28;20054;-86
2023/06/03 08:27:34;;;;;;;8.55;3.85;;;;;;;18.97;49.92;100021.16;4954853;28;20573;-88
2023/06/03 08:30:05;;;;;;;5.78;3.90;;;;;;;18.93;49.05;100022.59;4960123;28;20148;-88
2023/06/03 08:32:35;;;;;;;6.78;3.95;;;;;;;18.82;49.68;100029.22;4948607;28;20050;-88
2023/06/03 08:35:02;;;;;;;5.97;3.63;;;;;;;18.91;50.22;100018.41;4928818;28;20047;-88
2023/06/03 08:37:30;;;;;;;8.68;4.05;;;;;;;18.93;49.65;100009.13;4915452;28;20105;-88
2023/06/03 08:39:57;;;;;;;5.13;3.78;;;;;;;19.01;50.20;100011.72;4963124;28;20074;-88
2023/06/03 08:42:28;;;;;;;8.38;3.38;;;;;;;19.05;50.50;100017.53;4917827;28;20043;-89
2023/06/03 08:45:05;;;;;;;6.50;3.90;;;;;;;19.13;50.41;100025.53;4932341;28;20328;-87
2023/06/03 08:47:44;;;;;;;6.82;3.28;;;;;;;19.14;49.81;100019.13;4946061;28;20046;-86
2023/06/03 08:50:11;;;;;;;11.20;3.75;;;;;;;19.19;50.50;100023.97;4930879;28;20055;-88
2023/06/03 08:52:39;;;;;;;7.18;4.00;;;;;;;19.14;49.36;100032.59;4939552;28;20054;-87
2023/06/03 08:55:07;;;;;;;7.63;3.90;;;;;;;19.13;50.07;100027.38;4948202;28;20054;-87
2023/06/03 08:57:40;;;;;;;10.10;3.53;;;;;;;19.31;49.71;100022.47;4945767;28;20138;-87
2023/06/03 09:00:09;;;;;;;6.80;3.78;;;;;;;19.27;49.79;100021.16;4966438;28;20073;-88
2023/06/03 09:02:36;;;;;;;5.57;3.78;;;;;;;19.26;49.57;100017.63;4958062;28;20049;-87
2023/06/03 09:05:03;;;;;;;8.43;4.00;;;;;;;19.33;49.63;100017.69;4954796;28;20045;-87
2023/06/03 09:07:31;;;;;;;4.88;3.63;;;;;;;19.34;50.27;100024.78;4933144;28;20050;-89
2023/06/03 09:10:00;;;;;;;5.47;3.17;;;;;;;19.44;49.84;100017.22;4904618;28;20054;-89
2023/06/03 09:12:27;;;;;;;4.32;3.25;;;;;;;19.52;49.75;100022.50;4911028;28;20039;-88
2023/06/03 09:14:55;;;;;;;8.88;5.05;;;;;;;19.58;49.72;100020.06;4923873;28;20043;-86
2023/06/03 09:17:24;;;;;;;8.05;4.20;;;;;;;19.64;49.54;100011.22;4933126;28;20054;-87
2023/06/03 09:19:52;;;;;;;7.70;3.90;;;;;;;19.66;50.05;100006.47;4966164;28;20505;-87
2023/06/03 09:22:19;;;;;;;5.97;4.13;;;;;;;19.74;50.06;100017.16;4986396;28;20101;-87
2023/06/03 09:24:46;;;;;;;7.93;3.88;;;;;;;19.69;49.43;100011.53;4969373;28;20120;-87
2023/06/03 09:27:14;;;;;;;7.22;4.25;;;;;;;19.75;49.34;100012.63;4974682;28;20050;-85
2023/06/03 09:29:41;;;;;;;5.40;3.85;;;;;;;19.72;49.36;100012.00;4974071;28;20080;-87
2023/06/03 09:32:08;;;;;;;7.47;3.90;;;;;;;19.73;49.98;100010.94;4965463;28;20058;-89
2023/06/03 09:34:36;;;;;;;5.57;4.03;;;;;;;19.88;50.16;100008.22;4964251;28;20049;-88
2023/06/03 09:37:09;;;;;;;9.43;4.03;;;;;;;19.79;49.54;99998.56;4960599;28;20101;-87
2023/06/03 09:39:36;;;;;;;;;;;;;;;19.70;49.92;100000.56;4960426;28;20046;-89
2023/06/03 09:42:04;;;;;;;8.63;3.75;;;;;;;19.88;49.79;100007.38;4962916;28;19929;-90
2023/06/03 09:44:54;;;;;;;5.55;3.72;;;;;;;19.81;50.35;100001.91;4980040;28;20528;-88
2023/06/03 09:47:21;;;;;;;7.28;4.70;;;;;;;19.93;49.65;99994.16;4961665;28;20058;-88
2023/06/03 09:50:02;;;;;;;8.13;4.50;;;;;;;19.95;49.63;100003.72;4953063;28;20046;-88
2023/06/03 09:52:36;;;;;;;5.28;3.33;;;;;;;20.07;49.63;100005.88;4964449;28;20050;-88
2023/06/03 09:55:15;;;;;;;7.50;4.30;;;;;;;20.11;49.31;99994.53;4940217;28;20047;-87
2023/06/03 09:57:42;;;;;;;9.40;4.43;;;;;;;20.16;49.18;100002.03;4922799;28;20058;-89
2023/06/03 10:00:11;;;;;;;9.23;4.15;;;;;;;20.17;49.01;99996.47;4933779;28;20536;-87
2023/06/03 10:02:40;;;;;;;4.68;3.38;;;;;;;20.20;49.36;99999.78;4916697;28;20125;-89
2023/06/03 10:05:41;;;;;;;6.38;4.35;;;;;;;20.12;49.44;100001.59;4942164;28;20105;-90
2023/06/03 10:08:07;;;;;;;5.28;3.78;;;;;;;20.17;48.95;99977.59;4923622;28;20517;-89
2023/06/03 10:10:35;;;;;;;6.30;3.65;;;;;;;20.21;49.33;99996.06;4936964;28;20302;-88
2023/06/03 10:13:19;;;;;;;4.40;4.00;;;;;;;20.14;48.55;99994.13;4927435;28;20498;-88
2023/06/03 10:15:46;;;;;;;4.43;3.70;;;;;;;20.29;48.96;99982.44;4936902;28;20170;-89
2023/06/03 10:18:13;;;;;;;7.22;4.10;;;;;;;20.35;48.99;99981.66;4951798;28;20042;-89
2023/06/03 10:20:41;;;;;;;7.07;4.30;;;;;;;20.35;49.64;99984.34;4946023;28;20074;-88
2023/06/03 10:23:09;;;;;;;7.07;3.92;;;;;;;20.38;48.97;99983.97;4931127;28;20749;-89
2023/06/03 10:25:43;;;;;;;6.68;4.38;;;;;;;20.43;48.86;99991.47;4934627;28;20042;-87
2023/06/03 10:28:11;;;;;;;7.65;4.38;;;;;;;20.43;48.76;99981.53;4955028;28;20363;-88
2023/06/03 10:30:39;;;;;;;7.18;4.15;;;;;;;20.44;49.22;99982.34;4959696;28;20070;-88
2023/06/03 10:33:10;;;;;;;11.55;4.30;;;;;;;20.47;48.65;99973.84;4937732;28;20073;-88
2023/06/03 10:35:38;;;;;;;9.18;4.05;;;;;;;20.48;48.89;99962.88;4918608;28;20074;-88
2023/06/03 10:38:06;;;;;;;6.88;4.15;;;;;;;20.55;48.88;99977.25;4947316;28;20055;-88
2023/06/03 10:40:34;;;;;;;8.40;4.20;;;;;;;20.60;48.37;99966.72;4942329;28;20066;-87
2023/06/03 10:43:02;;;;;;;7.13;4.03;;;;;;;20.62;48.39;99958.44;4927125;28;20046;-88
2023/06/03 10:45:30;;;;;;;7.13;4.43;;;;;;;20.67;48.58;99964.06;4922155;28;20047;-87
2023/06/03 10:48:08;;;;;;;6.90;4.50;;;;;;;20.70;48.35;99960.97;4933771;28;20062;-88
2023/06/03 10:50:47;;;;;;;5.93;4.35;;;;;;;20.68;47.83;99970.28;4941031;28;20047;-88
2023/06/03 10:53:27;;;;;;;11.35;4.38;;;;;;;20.68;48.14;99964.88;4961804;28;20038;-88
2023/06/03 10:56:19;;;;;;;8.73;4.45;;;;;;;20.66;47.87;99959.72;4938102;28;20052;-89
2023/06/03 10:58:47;;;;;;;5.78;4.50;;;;;;;20.74;48.07;99961.41;4949032;28;20049;-88
2023/06/03 11:01:14;;;;;;;8.40;4.53;;;;;;;20.75;47.47;99976.56;4939452;28;20512;-87
2023/06/03 11:03:52;;;;;;;9.00;4.35;;;;;;;20.65;46.98;99968.81;4938561;28;20058;-88
2023/06/03 11:06:21;;;;;;;7.55;4.50;;;;;;;20.73;47.79;99957.84;4947920;28;20107;-86
2023/06/03 11:09:05;;;;;;;7.90;4.53;;;;;;;20.74;46.63;99954.16;4939945;28;20121;-87
2023/06/03 11:11:40;;;;;;;5.05;4.32;;;;;;;20.76;47.11;99964.72;4963560;28;20050;-87
2023/06/03 11:14:10;;;;;;;5.72;4.07;;;;;;;20.83;47.50;99951.28;4954513;28;20073;-88
2023/06/03 11:16:56;;;;;;;9.18;3.90;;;;;;;20.79;47.89;99954.38;4945556;28;20069;-87
2023/06/03 11:19:31;;;;;;;8.63;4.30;;;;;;;20.93;46.96;99959.84;4975703;28;20051;-88
2023/06/03 11:21:58;;;;;;;7.15;4.05;;;;;;;20.94;46.74;99965.06;4969506;28;20054;-89
2023/06/03 11:24:43;;;;;;;7.13;4.00;;;;;;;20.92;47.63;99964.41;4929453;28;20070;-90
2023/06/03 11:27:13;;;;;;;6.93;4.20;;;;;;;20.99;45.74;99984.19;4968350;28;20069;-89
2023/06/03 11:29:46;;;;;;;6.93;4.20;;;;;;;20.97;46.16;99953.03;4963978;28;20117;-89
2023/06/03 11:32:13;;;;;;;;;;;;;;;20.87;46.94;99957.94;4949202;28;20058;-89
2023/06/03 11:34:40;;;;;;;5.85;3.90;;;;;;;21.05;46.96;99954.72;4902796;28;19941;-90
2023/06/03 11:37:07;;;;;;;5.88;3.70;;;;;;;21.14;47.05;99961.59;4935515;28;20418;-89
2023/06/03 11:40:05;;;;;;;7.95;4.50;;;;;;;21.12;46.58;99953.72;4941952;28;20051;-89
2023/06/03 11:42:55;;;;;;;6.13;3.92;;;;;;;21.12;46.50;99953.72;4946280;28;20063;-89
2023/06/03 11:45:24;;;;;;;6.07;3.60;;;;;;;21.28;46.46;99949.81;4957731;28;20659;-89